createdAt,value
2023-04-27T00:00:42.774Z,17.76
2023-04-27T00:03:09.565Z,17.65
2023-04-27T00:05:39.382Z,17.55
2023-04-27T00:08:07.017Z,17.46
2023-04-27T00:10:33.718Z,17.39
2023-04-27T00:13:01.741Z,17.33
2023-04-27T00:15:29.334Z,17.25
2023-04-27T00:17:57.510Z,17.21
2023-04-27T00:20:24.095Z,17.16
2023-04-27T00:22:50.679Z,17.11
2023-04-27T00:25:17.205Z,17.08
2023-04-27T00:27:43.684Z,17.05
2023-04-27T00:30:10.978Z,17.02
2023-04-27T00:32:37.531Z,16.99
2023-04-27T00:35:04.320Z,16.97
2023-04-27T00:37:30.984Z,16.97
2023-04-27T00:39:57.503Z,16.96
2023-04-27T00:42:25.093Z,16.96
2023-04-27T00:44:51.611Z,16.96
2023-04-27T00:47:18.216Z,16.97
2023-04-27T00:49:44.888Z,16.97
2023-04-27T00:52:11.716Z,17.06
2023-04-27T00:54:38.910Z,17.17
2023-04-27T00:57:05.709Z,17.27
2023-04-27T00:59:32.268Z,17.40
2023-04-27T01:01:59.819Z,17.50
2023-04-27T01:04:27.113Z,17.60
2023-04-27T01:06:53.856Z,17.70
2023-04-27T01:09:21.455Z,17.79
2023-04-27T01:11:47.998Z,17.86
2023-04-27T01:14:15.883Z,17.91
2023-04-27T01:16:42.495Z,17.96
2023-04-27T01:19:09.399Z,17.99
2023-04-27T01:21:35.980Z,18.02
2023-04-27T01:24:05.902Z,18.03
2023-04-27T01:26:32.395Z,18.05
2023-04-27T01:28:59.240Z,18.06
2023-04-27T01:31:25.949Z,18.05
2023-04-27T01:33:52.523Z,18.06
2023-04-27T01:36:19.068Z,18.05
2023-04-27T01:38:45.618Z,18.04
2023-04-27T01:41:12.138Z,18.04
2023-04-27T01:43:38.672Z,18.03
2023-04-27T01:46:13.179Z,18.03
2023-04-27T01:48:41.204Z,18.01
2023-04-27T01:51:07.721Z,17.99
2023-04-27T01:53:34.848Z,17.97
2023-04-27T01:56:01.835Z,17.93
2023-04-27T01:58:28.663Z,17.93
2023-04-27T02:00:55.227Z,17.91
2023-04-27T02:03:22.213Z,17.89
2023-04-27T02:05:49.028Z,17.88
2023-04-27T02:08:15.599Z,17.87
2023-04-27T02:10:42.234Z,17.85
2023-04-27T02:13:09.792Z,17.87
2023-04-27T02:15:36.538Z,17.84
2023-04-27T02:18:03.817Z,17.83
2023-04-27T02:20:31.386Z,17.82
2023-04-27T02:22:58.057Z,17.80
2023-04-27T02:25:24.807Z,17.76
2023-04-27T02:27:51.340Z,17.79
2023-04-27T02:30:18.256Z,17.82
2023-04-27T02:32:46.355Z,17.86
2023-04-27T02:35:13.038Z,17.89
2023-04-27T02:37:39.661Z,17.92
2023-04-27T02:40:07.950Z,17.97
2023-04-27T02:42:34.558Z,17.99
2023-04-27T02:45:01.126Z,18.00
2023-04-27T02:47:27.703Z,18.02
2023-04-27T02:49:54.245Z,18.01
2023-04-27T02:52:20.775Z,17.99
2023-04-27T02:54:47.334Z,17.99
2023-04-27T02:57:13.864Z,17.95
2023-04-27T02:59:40.348Z,17.93
2023-04-27T03:02:07.676Z,17.91
2023-04-27T03:04:34.193Z,17.88
2023-04-27T03:07:00.699Z,17.85
2023-04-27T03:09:27.234Z,17.81
2023-04-27T03:11:53.806Z,17.79
2023-04-27T03:14:20.622Z,17.71
2023-04-27T03:16:47.174Z,17.62
2023-04-27T03:19:13.988Z,17.56
2023-04-27T03:21:40.661Z,17.49
2023-04-27T03:24:07.275Z,17.41
2023-04-27T03:26:33.829Z,17.33
2023-04-27T03:29:00.963Z,17.24
2023-04-27T03:31:27.589Z,17.17
2023-04-27T03:33:54.102Z,17.10
2023-04-27T03:36:20.912Z,17.02
2023-04-27T03:38:47.460Z,16.93
2023-04-27T03:41:13.968Z,16.88
2023-04-27T03:43:40.517Z,16.81
2023-04-27T03:46:07.096Z,16.75
2023-04-27T03:48:33.663Z,16.70
2023-04-27T03:51:01.195Z,16.65
2023-04-27T03:53:27.703Z,16.59
2023-04-27T03:55:54.220Z,16.54
2023-04-27T03:58:20.761Z,16.49
2023-04-27T04:00:47.260Z,16.45
2023-04-27T04:03:14.093Z,16.42
2023-04-27T04:05:40.864Z,16.40
2023-04-27T04:08:07.401Z,16.46
2023-04-27T04:10:33.887Z,16.56
2023-04-27T04:13:00.493Z,16.68
2023-04-27T04:15:26.972Z,16.80
2023-04-27T04:17:53.604Z,16.92
2023-04-27T04:20:20.211Z,17.06
2023-04-27T04:22:46.754Z,17.16
2023-04-27T04:25:13.301Z,17.25
2023-04-27T04:27:40.763Z,17.36
2023-04-27T04:30:08.272Z,17.42
2023-04-27T04:32:37.750Z,17.47
2023-04-27T04:35:06.009Z,17.52
2023-04-27T04:37:34.758Z,17.54
2023-04-27T04:40:08.776Z,17.57
2023-04-27T04:42:37.480Z,17.56
2023-04-27T04:45:04.433Z,17.56
2023-04-27T04:47:34.226Z,17.55
2023-04-27T04:50:01.143Z,17.53
2023-04-27T04:52:27.716Z,17.52
2023-04-27T04:54:54.532Z,17.48
2023-04-27T04:57:21.276Z,17.45
2023-04-27T04:59:47.813Z,17.41
2023-04-27T05:02:14.481Z,17.36
2023-04-27T05:04:41.107Z,17.30
2023-04-27T05:07:07.774Z,17.24
2023-04-27T05:09:34.365Z,17.20
2023-04-27T05:12:04.531Z,17.16
2023-04-27T05:14:31.115Z,17.13
2023-04-27T05:16:57.756Z,17.13
2023-04-27T05:19:25.264Z,17.13
2023-04-27T05:21:51.888Z,17.13
2023-04-27T05:24:18.446Z,17.14
2023-04-27T05:26:45.017Z,17.16
2023-04-27T05:29:11.742Z,17.17
2023-04-27T05:31:38.425Z,17.21
2023-04-27T05:34:05.004Z,17.25
2023-04-27T05:36:32.142Z,17.31
2023-04-27T05:38:58.669Z,17.36
2023-04-27T05:41:25.275Z,17.38
2023-04-27T05:43:51.890Z,17.41
2023-04-27T05:46:18.498Z,17.42
2023-04-27T05:48:45.045Z,17.43
2023-04-27T05:51:11.687Z,17.44
2023-04-27T05:53:38.282Z,17.44
2023-04-27T05:56:06.716Z,17.46
2023-04-27T05:58:33.934Z,17.47
2023-04-27T06:01:01.681Z,17.48
2023-04-27T06:03:29.436Z,17.49
2023-04-27T06:05:58.893Z,17.50
2023-04-27T06:08:26.216Z,17.52
2023-04-27T06:10:53.704Z,17.52
2023-04-27T06:13:20.455Z,17.53
2023-04-27T06:15:47.423Z,17.55
2023-04-27T06:18:14.368Z,17.56
2023-04-27T06:20:41.928Z,17.57
2023-04-27T06:23:08.699Z,17.58
2023-04-27T06:25:37.468Z,17.62
2023-04-27T06:28:04.324Z,17.66
2023-04-27T06:30:30.932Z,17.67
2023-04-27T06:32:57.522Z,17.69
2023-04-27T06:35:24.100Z,17.70
2023-04-27T06:37:51.306Z,17.73
2023-04-27T06:40:17.934Z,17.74
2023-04-27T06:42:44.513Z,17.76
2023-04-27T06:45:11.789Z,17.76
2023-04-27T06:47:38.449Z,17.79
2023-04-27T06:50:05.591Z,17.80
2023-04-27T06:52:33.497Z,17.81
2023-04-27T06:55:00.043Z,17.81
2023-04-27T06:57:26.863Z,17.83
2023-04-27T06:59:53.493Z,17.84
2023-04-27T07:02:20.098Z,17.83
2023-04-27T07:04:47.107Z,17.84
2023-04-27T07:07:13.933Z,17.84
2023-04-27T07:09:40.595Z,17.85
2023-04-27T07:12:07.235Z,17.85
2023-04-27T07:14:33.968Z,17.85
2023-04-27T07:17:00.605Z,17.85
2023-04-27T07:19:27.162Z,17.83
2023-04-27T07:21:53.769Z,17.83
2023-04-27T07:24:20.831Z,17.82
2023-04-27T07:26:48.078Z,17.80
2023-04-27T07:29:26.104Z,17.80
2023-04-27T07:31:54.515Z,17.78
2023-04-27T07:34:21.111Z,17.75
2023-04-27T07:36:47.741Z,17.74
2023-04-27T07:39:15.022Z,17.73
2023-04-27T07:41:41.694Z,17.74
2023-04-27T07:44:08.296Z,17.72
2023-04-27T07:46:34.838Z,17.73
2023-04-27T07:49:02.447Z,17.73
2023-04-27T07:51:29.252Z,17.73
2023-04-27T07:53:56.328Z,17.73
2023-04-27T07:56:22.914Z,17.75
2023-04-27T07:58:49.458Z,17.75
2023-04-27T08:01:16.886Z,17.76
2023-04-27T08:03:44.411Z,17.76
2023-04-27T08:06:11.594Z,17.78
2023-04-27T08:08:38.642Z,17.79
2023-04-27T08:11:05.238Z,17.80
2023-04-27T08:13:33.845Z,17.84
2023-04-27T08:16:00.547Z,17.87
2023-04-27T08:18:27.292Z,17.89
2023-04-27T08:20:54.543Z,17.92
2023-04-27T08:23:21.406Z,17.94
2023-04-27T08:25:48.555Z,17.97
2023-04-27T08:28:15.441Z,18.01
2023-04-27T08:30:42.751Z,18.06
2023-04-27T08:33:09.444Z,18.12
2023-04-27T08:35:36.433Z,18.15
2023-04-27T08:38:02.976Z,18.20
2023-04-27T08:40:29.556Z,18.21
2023-04-27T08:42:58.609Z,18.22
2023-04-27T08:45:26.868Z,18.22
2023-04-27T08:47:53.937Z,18.23
2023-04-27T08:50:20.563Z,18.22
2023-04-27T08:52:48.393Z,18.23
2023-04-27T08:55:16.625Z,18.24
2023-04-27T08:57:54.102Z,18.27
2023-04-27T09:00:21.127Z,18.29
2023-04-27T09:02:48.948Z,18.30
2023-04-27T09:05:19.784Z,18.33
2023-04-27T09:07:56.990Z,18.35
2023-04-27T09:10:23.913Z,18.42
2023-04-27T09:13:01.067Z,18.45
2023-04-27T09:15:28.808Z,18.50
2023-04-27T09:17:56.847Z,18.49
2023-04-27T09:20:24.124Z,18.50
2023-04-27T09:22:58.091Z,18.52
2023-04-27T09:25:31.422Z,18.53
2023-04-27T09:27:59.277Z,18.54
2023-04-27T09:30:26.572Z,18.58
2023-04-27T09:32:57.895Z,18.61
2023-04-27T09:35:32.105Z,18.68
2023-04-27T09:38:00.669Z,18.71
2023-04-27T09:40:31.299Z,18.77
2023-04-27T09:43:03.376Z,18.83
2023-04-27T09:45:30.487Z,18.88
2023-04-27T09:47:58.263Z,18.93
2023-04-27T09:50:24.830Z,18.98
2023-04-27T09:52:51.496Z,19.03
2023-04-27T09:55:24.564Z,19.08
2023-04-27T09:58:03.610Z,19.13
2023-04-27T10:00:42.635Z,19.19
2023-04-27T10:03:23.396Z,19.23
2023-04-27T10:06:17.627Z,19.30
2023-04-27T10:08:45.437Z,19.36
2023-04-27T10:11:17.104Z,19.39
2023-04-27T10:13:55.873Z,19.43
2023-04-27T10:16:22.556Z,19.47
2023-04-27T10:18:55.283Z,19.47
2023-04-27T10:21:22.727Z,19.49
2023-04-27T10:23:51.232Z,19.49
2023-04-27T10:26:28.247Z,19.49
2023-04-27T10:29:08.468Z,19.52
2023-04-27T10:31:35.703Z,19.53
2023-04-27T10:34:09.973Z,19.56
2023-04-27T10:36:38.072Z,19.59
2023-04-27T10:39:18.485Z,19.63
2023-04-27T10:41:56.251Z,19.69
2023-04-27T10:44:30.743Z,19.75
2023-04-27T10:47:02.117Z,19.80
2023-04-27T10:49:29.647Z,19.85
2023-04-27T10:51:58.968Z,19.92
2023-04-27T10:54:28.351Z,20.02
2023-04-27T10:57:02.387Z,20.13
2023-04-27T10:59:28.881Z,20.24
2023-04-27T11:01:55.823Z,20.34
2023-04-27T11:04:22.666Z,20.48
2023-04-27T11:06:50.221Z,20.58
2023-04-27T11:09:27.573Z,20.66
2023-04-27T11:11:54.182Z,20.76
2023-04-27T11:14:23.825Z,20.84
2023-04-27T11:16:53.519Z,20.90
2023-04-27T11:19:20.249Z,20.97
2023-04-27T11:21:46.924Z,21.03
2023-04-27T11:24:15.340Z,21.10
2023-04-27T11:26:42.168Z,21.17
2023-04-27T11:29:14.272Z,21.26
2023-04-27T11:31:41.202Z,21.31
2023-04-27T11:34:08.229Z,21.35
2023-04-27T11:36:34.760Z,21.36
2023-04-27T11:39:01.502Z,21.37
2023-04-27T11:41:37.490Z,21.37
2023-04-27T11:44:09.041Z,21.39
2023-04-27T11:46:38.990Z,21.43
2023-04-27T11:49:08.723Z,21.45
2023-04-27T11:51:36.422Z,21.46
2023-04-27T11:54:04.668Z,21.51
2023-04-27T11:56:36.346Z,21.48
2023-04-27T11:59:03.739Z,21.46
2023-04-27T12:01:38.229Z,21.48
2023-04-27T12:04:05.339Z,21.47
2023-04-27T12:06:33.744Z,21.45
2023-04-27T12:09:00.912Z,21.43
2023-04-27T12:11:27.840Z,21.42
2023-04-27T12:13:55.147Z,21.41
2023-04-27T12:16:22.694Z,21.39
2023-04-27T12:18:52.449Z,21.37
2023-04-27T12:21:19.085Z,21.36
2023-04-27T12:23:45.861Z,21.36
2023-04-27T12:26:15.217Z,21.36
2023-04-27T12:28:42.063Z,21.36
2023-04-27T12:31:08.766Z,21.37
2023-04-27T12:33:35.673Z,21.37
2023-04-27T12:36:02.375Z,21.39
2023-04-27T12:38:29.222Z,21.39
2023-04-27T12:40:56.292Z,21.39
2023-04-27T12:43:22.880Z,21.40
2023-04-27T12:45:49.464Z,21.39
2023-04-27T12:48:17.658Z,21.36
2023-04-27T12:50:44.598Z,21.34
2023-04-27T12:53:11.475Z,21.27
2023-04-27T12:55:38.093Z,21.20
2023-04-27T12:58:07.619Z,21.12
2023-04-27T13:00:34.587Z,21.06
2023-04-27T13:03:01.366Z,20.99
2023-04-27T13:05:30.390Z,20.93
2023-04-27T13:07:58.420Z,20.86
2023-04-27T13:10:25.002Z,20.82
2023-04-27T13:12:51.526Z,20.77
2023-04-27T13:15:18.225Z,20.73
2023-04-27T13:17:44.809Z,20.68
2023-04-27T13:20:12.046Z,20.64
2023-04-27T13:22:40.615Z,20.61
2023-04-27T13:25:08.386Z,20.57
2023-04-27T13:27:35.638Z,20.53
2023-04-27T13:30:02.223Z,20.52
2023-04-27T13:32:28.825Z,20.51
2023-04-27T13:34:55.371Z,20.49
2023-04-27T13:37:22.099Z,20.48
2023-04-27T13:39:48.660Z,20.49
2023-04-27T13:42:15.201Z,20.46
2023-04-27T13:44:41.773Z,20.45
2023-04-27T13:47:08.382Z,20.44
2023-04-27T13:49:34.908Z,20.44
2023-04-27T13:52:01.601Z,20.45
2023-04-27T13:54:28.661Z,20.44
2023-04-27T13:56:55.238Z,20.44
2023-04-27T13:59:21.838Z,20.42
2023-04-27T14:01:48.503Z,20.43
2023-04-27T14:04:15.295Z,20.42
2023-04-27T14:06:41.969Z,20.42
2023-04-27T14:09:09.280Z,20.41
2023-04-27T14:11:45.358Z,20.41
2023-04-27T14:14:19.232Z,20.41
2023-04-27T14:16:46.465Z,20.40
2023-04-27T14:19:16.001Z,20.38
2023-04-27T14:21:42.803Z,20.38
2023-04-27T14:24:09.301Z,20.38
2023-04-27T14:26:35.890Z,20.37
2023-04-27T14:29:02.385Z,20.36
2023-04-27T14:31:29.605Z,20.35
2023-04-27T14:33:59.265Z,20.36
2023-04-27T14:36:25.878Z,20.34
2023-04-27T14:38:52.422Z,20.34
2023-04-27T14:41:18.900Z,20.33
2023-04-27T14:43:46.996Z,20.33
2023-04-27T14:46:20.773Z,20.33
2023-04-27T14:48:48.390Z,20.33
2023-04-27T14:51:15.487Z,20.32
2023-04-27T14:53:42.537Z,20.30
2023-04-27T14:56:09.086Z,20.30
2023-04-27T14:58:35.596Z,20.29
2023-04-27T15:01:02.341Z,20.29
2023-04-27T15:03:29.025Z,20.28
2023-04-27T15:05:55.928Z,20.33
2023-04-27T15:08:22.702Z,20.38
2023-04-27T15:10:49.261Z,20.44
2023-04-27T15:13:16.083Z,20.50
2023-04-27T15:15:45.541Z,20.54
2023-04-27T15:18:12.384Z,20.60
2023-04-27T15:20:38.990Z,20.63
2023-04-27T15:23:05.530Z,20.68
2023-04-27T15:25:32.068Z,20.70
2023-04-27T15:27:59.441Z,20.73
2023-04-27T15:30:26.002Z,20.75
2023-04-27T15:32:52.595Z,20.78
2023-04-27T15:35:19.212Z,20.80
2023-04-27T15:37:45.813Z,20.81
2023-04-27T15:40:12.517Z,20.81
2023-04-27T15:42:39.079Z,20.80
2023-04-27T15:45:08.003Z,20.79
2023-04-27T15:47:36.130Z,20.76
2023-04-27T15:50:02.880Z,20.76
2023-04-27T15:52:29.407Z,20.76
2023-04-27T15:54:56.124Z,20.76
2023-04-27T15:57:22.709Z,20.75
2023-04-27T15:59:49.476Z,20.74
2023-04-27T16:02:16.321Z,20.73
2023-04-27T16:04:42.950Z,20.70
2023-04-27T16:07:09.492Z,20.72
2023-04-27T16:09:36.710Z,20.69
2023-04-27T16:12:03.894Z,20.69
2023-04-27T16:14:30.554Z,20.67
2023-04-27T16:17:00.793Z,20.68
2023-04-27T16:19:27.467Z,20.67
2023-04-27T16:21:54.293Z,20.67
2023-04-27T16:24:21.247Z,20.67
2023-04-27T16:26:48.065Z,20.67
2023-04-27T16:29:14.759Z,20.66
2023-04-27T16:31:42.984Z,20.65
2023-04-27T16:34:09.646Z,20.65
2023-04-27T16:36:36.511Z,20.66
2023-04-27T16:39:04.963Z,20.64
2023-04-27T16:41:31.687Z,20.61
2023-04-27T16:43:58.298Z,20.59
2023-04-27T16:46:24.868Z,20.57
2023-04-27T16:48:51.476Z,20.55
2023-04-27T16:51:18.076Z,20.54
2023-04-27T16:53:44.648Z,20.52
2023-04-27T16:56:13.447Z,20.51
2023-04-27T16:58:40.977Z,20.49
2023-04-27T17:01:07.869Z,20.47
2023-04-27T17:03:36.086Z,20.46
2023-04-27T17:06:03.163Z,20.44
2023-04-27T17:08:29.869Z,20.45
2023-04-27T17:10:56.444Z,20.43
2023-04-27T17:13:23.020Z,20.41
2023-04-27T17:15:50.549Z,20.38
2023-04-27T17:18:17.560Z,20.36
2023-04-27T17:20:44.173Z,20.33
2023-04-27T17:23:10.787Z,20.33
2023-04-27T17:25:37.378Z,20.31
2023-04-27T17:28:04.095Z,20.30
2023-04-27T17:30:30.666Z,20.28
2023-04-27T17:32:57.789Z,20.28
2023-04-27T17:35:24.488Z,20.28
2023-04-27T17:37:51.782Z,20.26
2023-04-27T17:40:20.762Z,20.26
2023-04-27T17:42:47.548Z,20.25
2023-04-27T17:45:14.248Z,20.23
2023-04-27T17:47:40.832Z,20.19
2023-04-27T17:50:08.374Z,20.19
2023-04-27T17:52:35.694Z,20.17
2023-04-27T17:55:02.217Z,20.17
2023-04-27T17:57:28.813Z,20.15
2023-04-27T17:59:55.358Z,20.13
2023-04-27T18:02:22.102Z,20.11
2023-04-27T18:04:48.833Z,20.09
2023-04-27T18:07:18.435Z,20.08
2023-04-27T18:09:45.040Z,20.06
2023-04-27T18:12:11.573Z,20.04
2023-04-27T18:14:38.499Z,20.03
2023-04-27T18:17:05.674Z,20.01
2023-04-27T18:19:32.378Z,20.04
2023-04-27T18:21:59.109Z,20.09
2023-04-27T18:24:25.629Z,20.14
2023-04-27T18:26:52.230Z,20.18
2023-04-27T18:29:18.821Z,20.24
2023-04-27T18:31:46.144Z,20.26
2023-04-27T18:34:13.182Z,20.31
2023-04-27T18:36:39.769Z,20.34
2023-04-27T18:39:06.345Z,20.37
2023-04-27T18:41:32.913Z,20.39
2023-04-27T18:44:04.724Z,20.40
2023-04-27T18:46:32.465Z,20.42
2023-04-27T18:48:59.355Z,20.45
2023-04-27T18:51:26.398Z,20.46
2023-04-27T18:53:53.356Z,20.45
2023-04-27T18:56:19.993Z,20.46
2023-04-27T18:58:48.522Z,20.46
2023-04-27T19:01:21.093Z,20.46
2023-04-27T19:03:47.738Z,20.45
2023-04-27T19:06:14.955Z,20.44
2023-04-27T19:08:42.015Z,20.42
2023-04-27T19:11:08.612Z,20.40
2023-04-27T19:13:35.747Z,20.38
2023-04-27T19:16:04.419Z,20.37
2023-04-27T19:18:31.183Z,20.35
2023-04-27T19:20:58.069Z,20.33
2023-04-27T19:23:24.629Z,20.28
2023-04-27T19:25:51.831Z,20.25
2023-04-27T19:28:21.678Z,20.24
2023-04-27T19:30:49.219Z,20.19
2023-04-27T19:33:17.578Z,20.17
2023-04-27T19:35:46.113Z,20.12
2023-04-27T19:38:12.701Z,20.09
2023-04-27T19:40:39.288Z,20.05
2023-04-27T19:43:07.088Z,20.02
2023-04-27T19:45:33.883Z,19.99
2023-04-27T19:48:00.768Z,19.97
2023-04-27T19:50:27.419Z,19.94
2023-04-27T19:52:53.957Z,19.90
2023-04-27T19:55:20.777Z,19.86
2023-04-27T19:57:47.318Z,19.84
2023-04-27T20:00:14.157Z,19.79
2023-04-27T20:02:41.156Z,19.75
2023-04-27T20:05:08.588Z,19.72
2023-04-27T20:07:35.752Z,19.70
2023-04-27T20:10:03.096Z,19.66
2023-04-27T20:15:02.113Z,19.61
2023-04-27T20:17:28.825Z,19.57
2023-04-27T20:19:56.502Z,19.53
2023-04-27T20:22:23.520Z,19.52
2023-04-27T20:24:50.965Z,19.51
2023-04-27T20:27:17.668Z,19.48
2023-04-27T20:29:46.477Z,19.45
2023-04-27T20:32:13.240Z,19.43
2023-04-27T20:34:39.848Z,19.41
2023-04-27T20:37:07.790Z,19.39
2023-04-27T20:39:35.040Z,19.38
2023-04-27T20:42:01.595Z,19.36
2023-04-27T20:44:28.153Z,19.33
2023-04-27T20:46:54.687Z,19.32
2023-04-27T20:49:32.137Z,19.32
2023-04-27T20:52:01.818Z,19.30
2023-04-27T20:54:28.451Z,19.27
2023-04-27T20:56:54.995Z,19.27
2023-04-27T20:59:21.567Z,19.27
2023-04-27T21:01:48.118Z,19.27
2023-04-27T21:04:15.062Z,19.24
2023-04-27T21:06:41.792Z,19.21
2023-04-27T21:09:08.486Z,19.18
2023-04-27T21:11:35.300Z,19.16
2023-04-27T21:14:01.996Z,19.16
2023-04-27T21:16:28.554Z,19.14
2023-04-27T21:18:55.119Z,19.15
2023-04-27T21:21:22.190Z,19.12
2023-04-27T21:23:54.390Z,19.09
2023-04-27T21:26:27.429Z,19.09
2023-04-27T21:28:53.959Z,19.08
2023-04-27T21:31:20.879Z,19.08
2023-04-27T21:33:47.501Z,19.06
2023-04-27T21:36:14.042Z,19.02
2023-04-27T21:38:40.610Z,19.01
2023-04-27T21:41:07.451Z,18.99
2023-04-27T21:43:34.036Z,18.99
2023-04-27T21:46:00.670Z,18.97
2023-04-27T21:48:27.307Z,18.97
2023-04-27T21:50:53.835Z,18.95
2023-04-27T21:53:20.333Z,18.94
2023-04-27T21:55:46.905Z,18.93
2023-04-27T21:58:13.549Z,18.91
2023-04-27T22:00:40.180Z,18.91
2023-04-27T22:03:06.878Z,18.90
2023-04-27T22:05:33.554Z,18.89
2023-04-27T22:08:00.152Z,18.87
2023-04-27T22:10:27.068Z,18.87
2023-04-27T22:12:53.618Z,18.86
2023-04-27T22:15:21.143Z,18.85
2023-04-27T22:17:47.726Z,18.84
2023-04-27T22:20:14.495Z,18.83
2023-04-27T22:22:41.278Z,18.82
2023-04-27T22:25:08.289Z,18.81
2023-04-27T22:27:41.971Z,18.81
2023-04-27T22:30:11.513Z,18.81
2023-04-27T22:32:38.126Z,18.80
2023-04-27T22:35:06.999Z,18.79
2023-04-27T22:37:37.252Z,18.78
2023-04-27T22:40:05.901Z,18.77
2023-04-27T22:42:32.495Z,18.75
2023-04-27T22:44:58.977Z,18.73
2023-04-27T22:47:25.576Z,18.72
2023-04-27T22:49:54.562Z,18.71
2023-04-27T22:52:21.871Z,18.70
2023-04-27T22:54:48.380Z,18.68
2023-04-27T22:57:14.961Z,18.68
2023-04-27T22:59:41.612Z,18.66
2023-04-27T23:02:08.208Z,18.65
2023-04-27T23:04:34.788Z,18.65
2023-04-27T23:07:01.414Z,18.64
2023-04-27T23:09:28.021Z,18.64
2023-04-27T23:11:54.850Z,18.62
2023-04-27T23:14:21.416Z,18.60
2023-04-27T23:16:47.969Z,18.59
2023-04-27T23:19:14.590Z,18.58
2023-04-27T23:21:41.285Z,18.57
2023-04-27T23:24:07.818Z,18.56
2023-04-27T23:26:34.323Z,18.55
2023-04-27T23:29:00.864Z,18.54
2023-04-27T23:31:27.641Z,18.53
2023-04-27T23:33:54.239Z,18.52
2023-04-27T23:36:21.080Z,18.50
2023-04-27T23:38:47.652Z,18.49
2023-04-27T23:41:14.201Z,18.47
2023-04-27T23:43:40.800Z,18.47
2023-04-27T23:46:07.371Z,18.46
2023-04-27T23:48:33.989Z,18.45
2023-04-27T23:51:04.478Z,18.44
2023-04-27T23:53:31.551Z,18.44
2023-04-27T23:55:58.121Z,18.44
2023-04-27T23:58:26.062Z,18.43
